createdAt,value
2022-08-14T00:02:15.727Z,19.99
2022-08-14T00:04:45.054Z,20.03
2022-08-14T00:07:13.817Z,20.06
2022-08-14T00:10:01.589Z,20.34
2022-08-14T00:12:39.186Z,20.08
2022-08-14T00:15:19.208Z,20.06
2022-08-14T00:17:53.120Z,19.99
2022-08-14T00:20:30.424Z,20.17
2022-08-14T00:23:11.857Z,20.24
2022-08-14T00:25:43.358Z,20.07
2022-08-14T00:28:26.504Z,20.02
2022-08-14T00:31:00.198Z,19.95
2022-08-14T00:33:52.496Z,19.91
2022-08-14T00:36:36.339Z,19.93
2022-08-14T00:39:06.455Z,19.94
2022-08-14T00:41:36.311Z,19.90
2022-08-14T00:44:07.374Z,19.96
2022-08-14T00:46:37.820Z,19.94
2022-08-14T00:49:06.111Z,19.92
2022-08-14T00:51:37.927Z,19.87
2022-08-14T00:54:16.951Z,20.05
2022-08-14T00:56:55.316Z,19.80
2022-08-14T00:59:28.368Z,19.78
2022-08-14T01:01:58.821Z,19.77
2022-08-14T01:04:51.510Z,19.77
2022-08-14T01:07:22.455Z,19.78
2022-08-14T01:10:05.226Z,19.78
2022-08-14T01:12:33.883Z,19.80
2022-08-14T01:15:09.367Z,19.73
2022-08-14T01:18:01.614Z,19.65
2022-08-14T01:20:47.555Z,19.58
2022-08-14T01:23:19.026Z,19.46
2022-08-14T01:25:48.789Z,19.50
2022-08-14T01:28:46.249Z,19.42
2022-08-14T01:31:15.580Z,19.27
2022-08-14T01:33:59.896Z,19.10
2022-08-14T01:36:38.996Z,19.03
2022-08-14T01:39:13.060Z,18.91
2022-08-14T01:41:43.901Z,18.91
2022-08-14T01:44:32.369Z,19.22
2022-08-14T01:47:22.200Z,18.94
2022-08-14T01:49:59.825Z,18.91
2022-08-14T01:52:59.241Z,18.93
2022-08-14T01:55:30.568Z,18.83
2022-08-14T01:58:01.423Z,18.79
2022-08-14T02:00:48.104Z,18.82
2022-08-14T02:03:16.236Z,18.74
2022-08-14T02:05:43.813Z,18.72
2022-08-14T02:08:10.907Z,18.71
2022-08-14T02:10:46.053Z,18.68
2022-08-14T02:13:17.258Z,18.66
2022-08-14T02:15:48.404Z,18.60
2022-08-14T02:18:16.305Z,18.43
2022-08-14T02:20:47.621Z,18.41
2022-08-14T02:23:15.388Z,18.43
2022-08-14T02:25:54.765Z,18.50
2022-08-14T02:28:57.617Z,18.52
2022-08-14T02:31:10.768Z,18.53
2022-08-14T02:33:43.199Z,18.57
2022-08-14T02:37:04.410Z,18.57
2022-08-14T02:38:58.704Z,18.58
2022-08-14T02:41:28.712Z,18.59
2022-08-14T02:44:00.787Z,18.51
2022-08-14T02:46:32.192Z,18.47
2022-08-14T02:49:01.333Z,18.38
2022-08-14T02:51:37.019Z,18.34
2022-08-14T02:54:07.185Z,18.31
2022-08-14T02:57:16.531Z,18.30
2022-08-14T02:59:29.579Z,18.29
2022-08-14T03:02:02.843Z,18.22
2022-08-14T03:04:31.175Z,18.20
2022-08-14T03:07:07.903Z,18.14
2022-08-14T03:10:24.319Z,18.20
2022-08-14T03:12:32.064Z,18.18
2022-08-14T03:15:03.079Z,18.15
2022-08-14T03:17:41.248Z,18.06
2022-08-14T03:20:19.282Z,18.00
2022-08-14T03:22:50.752Z,18.02
2022-08-14T03:25:18.572Z,18.03
2022-08-14T03:27:48.296Z,18.03
2022-08-14T03:30:39.052Z,18.15
2022-08-14T03:33:12.519Z,18.17
2022-08-14T03:35:59.905Z,18.22
2022-08-14T03:39:11.690Z,18.24
2022-08-14T03:41:28.418Z,18.27
2022-08-14T03:45:25.706Z,18.32
2022-08-14T03:46:55.046Z,18.32
2022-08-14T03:49:28.350Z,18.35
2022-08-14T03:52:00.442Z,18.38
2022-08-14T03:54:29.317Z,18.35
2022-08-14T03:57:02.370Z,18.42
2022-08-14T03:59:31.639Z,18.40
2022-08-14T04:02:01.763Z,18.46
2022-08-14T04:04:30.986Z,18.51
2022-08-14T04:06:59.602Z,18.52
2022-08-14T04:09:27.416Z,18.54
2022-08-14T04:11:56.187Z,18.58
2022-08-14T04:14:25.350Z,18.62
2022-08-14T04:16:52.500Z,18.71
2022-08-14T04:19:23.605Z,18.78
2022-08-14T04:22:03.966Z,18.83
2022-08-14T04:24:38.276Z,18.87
2022-08-14T04:27:11.794Z,18.97
2022-08-14T04:29:40.557Z,19.01
2022-08-14T04:32:58.522Z,19.13
2022-08-14T04:34:58.526Z,19.18
2022-08-14T04:37:45.522Z,19.29
2022-08-14T04:40:55.542Z,19.38
2022-08-14T04:43:41.089Z,19.47
2022-08-14T04:46:57.413Z,19.61
2022-08-14T04:49:03.734Z,19.64
2022-08-14T04:51:47.050Z,19.83
2022-08-14T04:54:26.824Z,19.96
2022-08-14T04:56:56.171Z,20.17
2022-08-14T04:59:24.451Z,20.30
2022-08-14T05:01:56.990Z,20.29
2022-08-14T05:04:25.167Z,20.48
2022-08-14T05:06:55.123Z,20.72
2022-08-14T05:09:29.382Z,20.87
2022-08-14T05:13:11.078Z,20.94
2022-08-14T05:14:53.378Z,21.04
2022-08-14T05:17:28.721Z,21.09
2022-08-14T05:21:04.126Z,21.19
2022-08-14T05:22:46.788Z,21.46
2022-08-14T05:25:13.866Z,21.60
2022-08-14T05:27:42.123Z,21.72
2022-08-14T05:30:10.374Z,21.79
2022-08-14T05:32:38.807Z,21.81
2022-08-14T05:35:06.511Z,21.89
2022-08-14T05:37:35.228Z,21.91
2022-08-14T05:40:02.571Z,21.87
2022-08-14T05:42:32.289Z,21.82
2022-08-14T05:45:04.151Z,21.87
2022-08-14T05:47:38.913Z,21.90
2022-08-14T05:50:18.799Z,21.94
2022-08-14T05:52:48.234Z,22.18
2022-08-14T05:55:16.707Z,22.40
2022-08-14T05:57:57.718Z,22.50
2022-08-14T06:00:30.835Z,22.60
2022-08-14T06:03:07.106Z,22.58
2022-08-14T06:05:35.107Z,22.73
2022-08-14T06:08:08.600Z,22.82
2022-08-14T06:10:53.705Z,22.86
2022-08-14T06:13:21.478Z,22.99
2022-08-14T06:15:50.697Z,23.07
2022-08-14T06:18:20.562Z,23.32
2022-08-14T06:20:52.762Z,23.36
2022-08-14T06:23:24.838Z,23.46
2022-08-14T06:25:54.580Z,23.61
2022-08-14T06:28:27.878Z,23.95
2022-08-14T06:30:56.039Z,24.13
2022-08-14T06:33:23.401Z,24.25
2022-08-14T06:36:11.489Z,23.88
2022-08-14T06:38:38.591Z,23.76
2022-08-14T06:41:05.907Z,23.95
2022-08-14T06:43:38.364Z,24.05
2022-08-14T06:46:12.941Z,24.31
2022-08-14T06:48:50.894Z,24.20
2022-08-14T06:51:17.961Z,24.03
2022-08-14T06:53:45.326Z,24.35
2022-08-14T06:56:14.253Z,24.51
2022-08-14T06:58:41.318Z,24.48
2022-08-14T07:01:28.473Z,24.45
2022-08-14T07:04:23.703Z,24.49
2022-08-14T07:06:54.865Z,24.55
2022-08-14T07:09:27.921Z,24.73
2022-08-14T07:11:55.605Z,25.04
2022-08-14T07:14:23.689Z,25.09
2022-08-14T07:16:51.057Z,25.29
2022-08-14T07:19:20.961Z,25.04
2022-08-14T07:21:48.466Z,24.98
2022-08-14T07:24:21.992Z,25.19
2022-08-14T07:26:53.911Z,25.44
2022-08-14T07:29:26.120Z,25.40
2022-08-14T07:31:54.076Z,25.48
2022-08-14T07:34:35.968Z,25.66
2022-08-14T07:37:05.769Z,25.87
2022-08-14T07:39:34.500Z,25.84
2022-08-14T07:42:02.464Z,25.65
2022-08-14T07:44:35.947Z,25.58
2022-08-14T07:47:15.877Z,25.54
2022-08-14T07:49:59.345Z,25.74
2022-08-14T07:52:30.442Z,25.84
2022-08-14T07:54:58.224Z,26.10
2022-08-14T07:57:26.423Z,26.37
2022-08-14T07:59:53.845Z,26.59
2022-08-14T08:02:21.889Z,26.65
2022-08-14T08:04:54.400Z,26.82
2022-08-14T08:07:30.119Z,26.90
2022-08-14T08:09:59.943Z,27.15
2022-08-14T08:12:30.849Z,27.17
2022-08-14T08:15:02.957Z,27.20
2022-08-14T08:17:42.639Z,27.38
2022-08-14T08:20:27.346Z,27.47
2022-08-14T08:23:00.237Z,27.55
2022-08-14T08:25:32.801Z,27.48
2022-08-14T08:28:08.915Z,27.34
2022-08-14T08:30:51.331Z,27.35
2022-08-14T08:33:20.026Z,27.52
2022-08-14T08:35:50.480Z,27.37
2022-08-14T08:39:16.782Z,26.85
2022-08-14T08:41:11.173Z,26.96
2022-08-14T08:43:39.422Z,27.14
2022-08-14T08:46:21.069Z,27.40
2022-08-14T08:51:33.466Z,28.08
2022-08-14T08:54:15.374Z,28.29
2022-08-14T08:56:54.023Z,28.21
2022-08-14T08:59:31.612Z,28.54
2022-08-14T09:02:10.186Z,28.62
2022-08-14T09:04:45.516Z,28.75
2022-08-14T09:07:27.250Z,28.97
2022-08-14T09:09:59.120Z,28.99
2022-08-14T09:12:32.642Z,29.20
2022-08-14T09:15:11.268Z,29.31
2022-08-14T09:17:42.472Z,28.93
2022-08-14T09:20:12.424Z,29.05
2022-08-14T09:22:48.413Z,29.32
2022-08-14T09:25:16.873Z,29.29
2022-08-14T09:27:44.289Z,29.04
2022-08-14T09:30:30.573Z,28.92
2022-08-14T09:33:06.077Z,28.82
2022-08-14T09:35:57.477Z,29.25
2022-08-14T09:38:43.262Z,29.65
2022-08-14T09:42:20.352Z,30.08
2022-08-14T09:44:38.360Z,30.23
2022-08-14T09:47:05.420Z,29.95
2022-08-14T09:49:39.994Z,30.33
2022-08-14T09:52:33.217Z,30.40
2022-08-14T09:55:00.958Z,30.37
2022-08-14T09:57:31.022Z,30.00
2022-08-14T09:59:59.143Z,30.49
2022-08-14T10:02:31.976Z,30.92
2022-08-14T10:05:10.679Z,30.84
2022-08-14T10:07:53.769Z,31.25
2022-08-14T10:10:38.925Z,31.28
2022-08-14T10:13:20.728Z,31.15
2022-08-14T10:15:51.706Z,31.37
2022-08-14T10:18:20.314Z,31.08
2022-08-14T10:21:00.842Z,31.26
2022-08-14T10:23:43.474Z,31.50
2022-08-14T10:26:11.985Z,31.58
2022-08-14T10:29:18.302Z,31.64
2022-08-14T10:31:44.781Z,31.93
2022-08-14T10:34:19.196Z,31.81
2022-08-14T10:36:49.874Z,31.36
2022-08-14T10:39:20.783Z,31.63
2022-08-14T10:41:53.942Z,32.07
2022-08-14T10:44:29.692Z,32.31
2022-08-14T10:47:36.520Z,32.37
2022-08-14T10:50:00.494Z,32.47
2022-08-14T10:52:33.926Z,31.83
2022-08-14T10:55:08.243Z,32.05
2022-08-14T10:57:46.831Z,32.15
2022-08-14T11:00:20.734Z,32.38
2022-08-14T11:03:11.207Z,31.95
2022-08-14T11:05:44.395Z,31.66
2022-08-14T11:08:14.991Z,31.95
2022-08-14T11:10:46.604Z,32.08
2022-08-14T11:13:19.681Z,32.16
2022-08-14T11:15:49.335Z,31.62
2022-08-14T11:18:20.323Z,31.89
2022-08-14T11:21:02.258Z,32.11
2022-08-14T11:23:41.076Z,32.35
2022-08-14T11:26:13.536Z,32.31
2022-08-14T11:28:47.974Z,32.40
2022-08-14T11:31:23.780Z,32.46
2022-08-14T11:33:55.412Z,33.15
2022-08-14T11:36:57.063Z,32.91
2022-08-14T11:39:37.043Z,33.27
2022-08-14T11:42:07.602Z,33.73
2022-08-14T11:45:10.952Z,33.66
2022-08-14T11:47:43.841Z,33.34
2022-08-14T11:50:36.315Z,33.18
2022-08-14T11:53:07.073Z,33.72
2022-08-14T11:55:37.974Z,33.73
2022-08-14T11:58:11.607Z,34.06
2022-08-14T12:00:50.039Z,34.06
2022-08-14T12:03:37.633Z,34.26
2022-08-14T12:06:27.776Z,34.13
2022-08-14T12:08:59.917Z,34.28
2022-08-14T12:11:38.375Z,34.52
2022-08-14T12:14:34.759Z,33.68
2022-08-14T12:17:02.505Z,34.30
2022-08-14T12:19:33.782Z,34.36
2022-08-14T12:22:03.011Z,34.65
2022-08-14T12:24:32.079Z,34.04
2022-08-14T12:27:04.262Z,33.87
2022-08-14T12:29:31.890Z,33.78
2022-08-14T12:32:00.870Z,34.04
2022-08-14T12:34:32.384Z,34.15
2022-08-14T12:37:08.063Z,34.06
2022-08-14T12:39:39.947Z,33.55
2022-08-14T12:42:11.821Z,33.25
2022-08-14T12:44:58.711Z,32.60
2022-08-14T12:47:31.194Z,32.76
2022-08-14T12:49:58.662Z,32.67
2022-08-14T12:52:36.308Z,32.33
2022-08-14T12:55:17.214Z,32.38
2022-08-14T12:57:49.439Z,32.47
2022-08-14T13:00:23.986Z,32.23
2022-08-14T13:02:55.117Z,32.18
2022-08-14T13:05:25.180Z,32.16
2022-08-14T13:07:55.358Z,32.13
2022-08-14T13:10:47.494Z,32.03
2022-08-14T13:13:15.518Z,32.26
2022-08-14T13:15:45.500Z,32.02
2022-08-14T13:18:17.062Z,31.79
2022-08-14T13:20:51.507Z,32.40
2022-08-14T13:23:31.927Z,33.16
2022-08-14T13:26:00.290Z,34.01
2022-08-14T13:28:33.235Z,34.73
2022-08-14T13:31:11.323Z,35.09
2022-08-14T13:33:40.929Z,35.55
2022-08-14T13:36:09.960Z,35.91
2022-08-14T13:38:38.861Z,35.65
2022-08-14T13:41:06.769Z,35.49
2022-08-14T13:43:36.941Z,36.06
2022-08-14T13:46:20.756Z,36.41
2022-08-14T13:48:53.209Z,36.38
2022-08-14T13:51:26.087Z,36.68
2022-08-14T13:54:10.067Z,36.58
2022-08-14T13:56:40.377Z,36.02
2022-08-14T13:59:08.590Z,36.55
2022-08-14T14:01:43.527Z,36.72
2022-08-14T14:04:19.047Z,36.43
2022-08-14T14:06:49.476Z,36.36
2022-08-14T14:09:32.629Z,35.70
2022-08-14T14:12:36.678Z,35.45
2022-08-14T14:15:01.731Z,35.57
2022-08-14T14:17:35.019Z,36.30
2022-08-14T14:20:06.159Z,36.28
2022-08-14T14:22:35.949Z,35.24
2022-08-14T14:25:22.207Z,34.73
2022-08-14T14:27:53.381Z,34.58
2022-08-14T14:30:51.916Z,35.39
2022-08-14T14:33:42.407Z,36.15
2022-08-14T14:36:01.644Z,36.07
2022-08-14T14:38:32.832Z,36.26
2022-08-14T14:41:01.566Z,36.13
2022-08-14T14:43:29.104Z,36.11
2022-08-14T14:45:56.366Z,36.36
2022-08-14T14:48:28.289Z,36.70
2022-08-14T14:50:59.406Z,36.65
2022-08-14T14:53:31.264Z,36.40
2022-08-14T14:56:50.686Z,36.68
2022-08-14T14:58:53.883Z,36.57
2022-08-14T15:01:24.090Z,36.62
2022-08-14T15:03:54.209Z,36.78
2022-08-14T15:06:22.713Z,36.69
2022-08-14T15:08:59.999Z,36.50
2022-08-14T15:11:30.204Z,36.28
2022-08-14T15:13:57.981Z,36.56
2022-08-14T15:16:25.247Z,36.20
2022-08-14T15:18:52.959Z,36.40
2022-08-14T15:21:20.254Z,36.80
2022-08-14T15:23:50.685Z,36.38
2022-08-14T15:26:24.297Z,36.17
2022-08-14T15:29:02.056Z,35.80
2022-08-14T15:31:30.759Z,35.36
2022-08-14T15:34:45.751Z,35.30
2022-08-14T15:37:04.438Z,35.26
2022-08-14T15:39:33.798Z,35.89
2022-08-14T15:42:15.999Z,35.84
2022-08-14T15:44:58.344Z,35.68
2022-08-14T15:47:31.338Z,35.46
2022-08-14T15:50:01.191Z,35.22
2022-08-14T15:52:37.094Z,34.64
2022-08-14T15:55:08.357Z,34.45
2022-08-14T15:57:38.685Z,34.56
2022-08-14T16:00:43.583Z,35.22
2022-08-14T16:03:27.497Z,35.55
2022-08-14T16:06:06.016Z,35.89
2022-08-14T16:08:38.945Z,35.75
2022-08-14T16:11:08.304Z,35.18
2022-08-14T16:13:42.883Z,35.19
2022-08-14T16:16:51.081Z,35.13
2022-08-14T16:19:10.707Z,35.22
2022-08-14T16:21:40.456Z,35.49
2022-08-14T16:24:27.793Z,35.04
2022-08-14T16:27:00.866Z,34.76
2022-08-14T16:29:34.528Z,33.94
2022-08-14T16:32:33.120Z,32.53
2022-08-14T16:34:54.778Z,31.72
2022-08-14T16:37:31.111Z,30.76
2022-08-14T16:40:02.180Z,30.25
2022-08-14T16:43:02.718Z,29.99
2022-08-14T16:45:24.351Z,29.58
2022-08-14T16:47:51.906Z,29.54
2022-08-14T16:50:43.544Z,29.45
2022-08-14T16:53:07.519Z,29.27
2022-08-14T16:55:51.193Z,29.08
2022-08-14T16:58:29.866Z,29.02
2022-08-14T17:01:24.910Z,28.91
2022-08-14T17:03:56.660Z,28.92
2022-08-14T17:06:38.135Z,28.79
2022-08-14T17:09:08.783Z,28.66
2022-08-14T17:11:51.991Z,28.45
2022-08-14T17:14:27.019Z,28.36
2022-08-14T17:16:59.353Z,28.25
2022-08-14T17:19:40.169Z,28.28
2022-08-14T17:22:11.793Z,28.09
2022-08-14T17:24:56.244Z,28.05
2022-08-14T17:27:28.591Z,27.78
2022-08-14T17:29:57.679Z,27.58
2022-08-14T17:32:56.869Z,27.54
2022-08-14T17:35:26.109Z,27.46
2022-08-14T17:37:55.967Z,27.25
2022-08-14T17:40:30.072Z,27.18
2022-08-14T17:43:02.199Z,27.03
2022-08-14T17:45:42.993Z,26.86
2022-08-14T17:49:16.094Z,26.82
2022-08-14T17:51:23.925Z,26.75
2022-08-14T17:54:02.509Z,26.54
2022-08-14T17:56:34.088Z,26.42
2022-08-14T17:59:05.941Z,26.33
2022-08-14T18:01:37.802Z,26.31
2022-08-14T18:04:27.776Z,26.19
2022-08-14T18:07:09.074Z,26.11
2022-08-14T18:09:56.960Z,26.03
2022-08-14T18:12:31.797Z,25.87
2022-08-14T18:15:16.441Z,25.73
2022-08-14T18:17:53.341Z,25.65
2022-08-14T18:21:40.013Z,25.50
2022-08-14T18:23:13.703Z,25.42
2022-08-14T18:25:52.796Z,25.31
2022-08-14T18:28:51.897Z,25.23
2022-08-14T18:31:22.839Z,25.18
2022-08-14T18:33:56.080Z,25.16
2022-08-14T18:37:02.058Z,25.10
2022-08-14T18:40:02.001Z,25.02
2022-08-14T18:42:30.341Z,24.94
2022-08-14T18:45:01.070Z,24.85
2022-08-14T18:47:56.573Z,24.82
2022-08-14T18:50:26.819Z,24.77
2022-08-14T18:53:06.871Z,24.80
2022-08-14T18:55:34.107Z,24.77
2022-08-14T18:58:01.581Z,24.73
2022-08-14T19:00:33.789Z,24.67
2022-08-14T19:03:03.912Z,24.65
2022-08-14T19:05:47.666Z,24.64
2022-08-14T19:08:25.175Z,24.60
2022-08-14T19:10:54.085Z,24.53
2022-08-14T19:13:48.650Z,24.50
2022-08-14T19:16:22.938Z,24.47
2022-08-14T19:19:00.513Z,24.40
2022-08-14T19:21:32.548Z,24.40
2022-08-14T19:24:30.002Z,24.35
2022-08-14T19:27:16.747Z,24.28
2022-08-14T19:29:47.943Z,24.23
2022-08-14T19:32:36.593Z,24.18
2022-08-14T19:35:17.301Z,23.99
2022-08-14T19:37:57.418Z,23.95
2022-08-14T19:40:40.128Z,23.89
2022-08-14T19:43:10.601Z,23.86
2022-08-14T19:45:39.769Z,23.79
2022-08-14T19:48:14.484Z,23.76
2022-08-14T19:50:46.914Z,23.70
2022-08-14T19:53:17.719Z,23.60
2022-08-14T19:55:59.286Z,23.54
2022-08-14T19:58:54.511Z,23.51
2022-08-14T20:01:36.595Z,23.46
2022-08-14T20:04:22.891Z,23.44
2022-08-14T20:06:56.000Z,23.34
2022-08-14T20:11:04.171Z,23.24
2022-08-14T20:12:35.203Z,23.15
2022-08-14T20:15:08.755Z,23.13
2022-08-14T20:17:40.566Z,23.16
2022-08-14T20:20:20.985Z,23.17
2022-08-14T20:23:02.492Z,23.17
2022-08-14T20:25:55.814Z,23.12
2022-08-14T20:28:31.971Z,23.09
2022-08-14T20:31:17.925Z,23.14
2022-08-14T20:34:03.586Z,23.29
2022-08-14T20:36:33.324Z,23.26
2022-08-14T20:39:00.679Z,23.32
2022-08-14T20:41:27.779Z,23.26
2022-08-14T20:44:15.792Z,23.29
2022-08-14T20:46:50.000Z,23.16
2022-08-14T20:49:28.124Z,23.18
2022-08-14T20:52:00.162Z,23.23
2022-08-14T20:54:36.380Z,23.36
2022-08-14T20:57:17.925Z,23.39
2022-08-14T20:59:53.328Z,23.33
2022-08-14T21:02:29.493Z,23.29
2022-08-14T21:05:00.804Z,23.26
2022-08-14T21:07:36.665Z,23.26
2022-08-14T21:10:35.826Z,23.22
2022-08-14T21:14:09.179Z,23.26
2022-08-14T21:15:57.976Z,23.20
2022-08-14T21:18:34.365Z,23.20
2022-08-14T21:21:08.025Z,23.21
2022-08-14T21:23:54.379Z,23.26
2022-08-14T21:26:50.593Z,23.26
2022-08-14T21:29:14.297Z,23.30
2022-08-14T21:31:43.069Z,23.26
2022-08-14T21:34:30.895Z,23.26
2022-08-14T21:37:07.799Z,23.07
2022-08-14T21:39:36.365Z,22.85
2022-08-14T21:42:05.950Z,22.73
2022-08-14T21:44:42.576Z,22.58
2022-08-14T21:47:13.019Z,22.52
2022-08-14T21:49:43.146Z,22.52
2022-08-14T21:52:51.454Z,22.51
2022-08-14T21:55:09.182Z,22.50
2022-08-14T21:57:55.751Z,22.64
2022-08-14T22:00:39.677Z,22.73
2022-08-14T22:03:19.495Z,22.68
2022-08-14T22:05:53.127Z,22.70
2022-08-14T22:08:22.495Z,22.70
2022-08-14T22:10:54.409Z,22.64
2022-08-14T22:13:26.539Z,22.57
2022-08-14T22:15:59.695Z,22.56
2022-08-14T22:18:27.199Z,22.58
2022-08-14T22:20:57.349Z,22.58
2022-08-14T22:23:25.952Z,22.52
2022-08-14T22:25:55.211Z,22.50
2022-08-14T22:28:32.656Z,22.53
2022-08-14T22:31:03.979Z,22.44
2022-08-14T22:33:39.301Z,22.35
2022-08-14T22:36:27.462Z,22.33
2022-08-14T22:39:01.402Z,22.33
2022-08-14T22:41:35.233Z,22.24
2022-08-14T22:44:13.238Z,22.26
2022-08-14T22:46:43.319Z,22.22
2022-08-14T22:49:16.336Z,22.18
2022-08-14T22:51:59.504Z,22.18
2022-08-14T22:54:51.971Z,22.15
2022-08-14T22:57:15.454Z,22.12
2022-08-14T22:59:43.071Z,22.09
2022-08-14T23:02:16.843Z,22.09
2022-08-14T23:04:54.077Z,22.10
2022-08-14T23:07:23.779Z,22.08
2022-08-14T23:09:57.758Z,22.06
2022-08-14T23:12:47.567Z,22.03
2022-08-14T23:15:24.342Z,22.09
2022-08-14T23:17:57.506Z,22.06
2022-08-14T23:20:29.280Z,22.03
2022-08-14T23:22:57.387Z,22.03
2022-08-14T23:25:57.538Z,21.99
2022-08-14T23:28:32.888Z,21.86
2022-08-14T23:31:08.576Z,21.89
2022-08-14T23:33:45.660Z,21.90
2022-08-14T23:36:31.823Z,22.01
2022-08-14T23:39:07.142Z,22.00
2022-08-14T23:41:47.004Z,21.98
2022-08-14T23:44:21.914Z,21.78
2022-08-14T23:46:52.747Z,21.80
2022-08-14T23:49:28.754Z,21.86
2022-08-14T23:52:50.627Z,21.86
2022-08-14T23:55:05.479Z,21.91
2022-08-14T23:57:32.857Z,21.95
